Time;durP1;ratioP1;P1;durP2;ratioP2;P2;SDS_P1;SDS_P2;PMS_P1;PMS_P2;Temp;Humidity;BMP_temperature;BMP_pressure;BME280_temperature;BME280_humidity;BME280_pressure;Samples;Min_cycle;Max_cycle;Signal;HPM_P1;HPM_P2
2023/07/12 00:01:26;;;;;;;0.57;0.55;;;;;;;;;;7386544;19;20152;-85
2023/07/12 00:03:53;;;;;;;0.50;0.50;;;;;;;;;;7389381;19;20133;-85
2023/07/12 00:06:33;;;;;;;3.13;1.00;;;;;;;;;;7394335;19;20160;-86
2023/07/12 00:09:00;;;;;;;0.50;0.50;;;;;;;;;;7403018;19;20138;-85
2023/07/12 00:11:27;;;;;;;0.40;0.40;;;;;;;;;;7404621;19;20145;-86
2023/07/12 00:13:57;;;;;;;0.70;0.70;;;;;;;;;;7402517;19;20133;-84
2023/07/12 00:16:37;;;;;;;1.00;0.73;;;;;;;;;;7401352;19;20175;-85
2023/07/12 00:19:04;;;;;;;0.60;0.60;;;;;;;;;;7400915;19;20137;-85
2023/07/12 00:21:32;;;;;;;1.55;0.95;;;;;;;;;;7401670;19;20508;-86
2023/07/12 00:24:00;;;;;;;0.50;0.50;;;;;;;;;;7403330;19;20757;-85
2023/07/12 00:26:31;;;;;;;0.68;0.68;;;;;;;;;;7397943;19;20175;-85
2023/07/12 00:28:59;;;;;;;0.32;0.32;;;;;;;;;;7401099;19;20554;-85
2023/07/12 00:31:30;;;;;;;0.50;0.50;;;;;;;;;;7389319;19;20140;-85
2023/07/12 00:33:57;;;;;;;0.70;0.70;;;;;;;;;;7395070;19;20482;-86
2023/07/12 00:36:26;;;;;;;0.40;0.40;;;;;;;;;;7399607;19;20155;-85
2023/07/12 00:38:54;;;;;;;3.42;1.17;;;;;;;;;;7395807;19;20187;-85
2023/07/12 00:41:42;;;;;;;1.00;1.00;;;;;;;;;;7396184;19;20140;-84
2023/07/12 00:44:19;;;;;;;0.50;0.50;;;;;;;;;;7397456;19;20129;-85
2023/07/12 00:46:52;;;;;;;0.55;0.55;;;;;;;;;;7390630;19;20211;-85
2023/07/12 00:49:19;;;;;;;0.63;0.63;;;;;;;;;;7394392;19;20668;-85
2023/07/12 00:51:50;;;;;;;0.50;0.50;;;;;;;;;;7391803;19;20137;-85
2023/07/12 00:54:23;;;;;;;9.52;1.58;;;;;;;;;;7387478;19;20485;-85
2023/07/12 00:56:50;;;;;;;0.40;0.40;;;;;;;;;;7387091;19;20599;-85
2023/07/12 00:59:26;;;;;;;0.40;0.40;;;;;;;;;;7384721;19;20208;-85
2023/07/12 01:01:58;;;;;;;0.60;0.60;;;;;;;;;;7385313;19;20137;-85
2023/07/12 01:04:28;;;;;;;0.85;0.82;;;;;;;;;;7385571;19;20121;-85
2023/07/12 01:06:54;;;;;;;0.50;0.50;;;;;;;;;;7386556;19;20173;-85
2023/07/12 01:09:21;;;;;;;0.43;0.43;;;;;;;;;;7391443;19;20148;-85
2023/07/12 01:11:49;;;;;;;0.68;0.68;;;;;;;;;;7391604;19;20151;-85
2023/07/12 01:14:17;;;;;;;0.82;0.82;;;;;;;;;;7391873;19;20141;-85
2023/07/12 01:16:47;;;;;;;0.95;0.95;;;;;;;;;;7399701;19;20606;-85
2023/07/12 01:19:14;;;;;;;0.75;0.70;;;;;;;;;;7401044;19;20138;-85
2023/07/12 01:21:43;;;;;;;0.88;0.88;;;;;;;;;;7404408;19;20149;-87
2023/07/12 01:24:10;;;;;;;0.47;0.47;;;;;;;;;;7400200;19;20645;-85
2023/07/12 01:26:41;;;;;;;0.55;0.55;;;;;;;;;;7399074;19;20156;-85
2023/07/12 01:29:08;;;;;;;0.75;0.75;;;;;;;;;;7402440;19;20132;-88
2023/07/12 01:31:36;;;;;;;3.60;1.20;;;;;;;;;;7404121;19;20594;-84
2023/07/12 01:34:03;;;;;;;0.60;0.60;;;;;;;;;;7403598;19;20148;-87
2023/07/12 01:36:31;;;;;;;1.35;1.25;;;;;;;;;;7400572;19;20148;-86
2023/07/12 01:38:58;;;;;;;1.40;0.80;;;;;;;;;;7405002;19;20133;-85
2023/07/12 01:41:25;;;;;;;0.60;0.60;;;;;;;;;;7404871;19;20145;-86
2023/07/12 01:43:52;;;;;;;0.75;0.75;;;;;;;;;;7400818;19;20141;-85
2023/07/12 01:46:19;;;;;;;0.88;0.80;;;;;;;;;;7401914;19;20163;-84
2023/07/12 01:48:47;;;;;;;1.67;1.15;;;;;;;;;;7400919;19;20533;-85
2023/07/12 01:51:15;;;;;;;0.60;0.60;;;;;;;;;;7400650;19;20251;-86
2023/07/12 01:53:42;;;;;;;1.27;0.82;;;;;;;;;;7397449;19;20744;-85
2023/07/12 01:56:09;;;;;;;0.68;0.68;;;;;;;;;;7393298;19;20129;-85
2023/07/12 01:58:36;;;;;;;0.50;0.50;;;;;;;;;;7399826;19;20145;-86
2023/07/12 02:01:02;;;;;;;0.52;0.52;;;;;;;;;;7398217;19;20145;-85
2023/07/12 02:03:30;;;;;;;1.65;0.70;;;;;;;;;;7401687;19;20473;-85
2023/07/12 02:05:57;;;;;;;1.20;1.10;;;;;;;;;;7397622;19;20164;-85
2023/07/12 02:08:24;;;;;;;1.67;1.00;;;;;;;;;;7398583;19;20137;-85
2023/07/12 02:10:51;;;;;;;1.38;0.90;;;;;;;;;;7395892;19;20160;-85
2023/07/12 02:13:19;;;;;;;0.40;0.40;;;;;;;;;;7397679;19;20141;-86
2023/07/12 02:15:46;;;;;;;0.35;0.35;;;;;;;;;;7400209;19;20543;-87
2023/07/12 02:18:13;;;;;;;0.30;0.30;;;;;;;;;;7397662;19;20641;-85
2023/07/12 02:20:40;;;;;;;0.45;0.45;;;;;;;;;;7402564;19;20137;-84
2023/07/12 02:23:07;;;;;;;0.50;0.50;;;;;;;;;;7401803;19;20223;-85
2023/07/12 02:25:34;;;;;;;4.28;1.08;;;;;;;;;;7402598;19;20147;-85
2023/07/12 02:28:00;;;;;;;0.60;0.60;;;;;;;;;;7396780;19;20163;-85
2023/07/12 02:30:28;;;;;;;1.30;1.20;;;;;;;;;;7397986;19;20553;-85
2023/07/12 02:32:56;;;;;;;0.73;0.73;;;;;;;;;;7401710;19;20141;-86
2023/07/12 02:35:29;;;;;;;0.57;0.57;;;;;;;;;;7398776;19;20164;-86
2023/07/12 02:37:57;;;;;;;0.80;0.80;;;;;;;;;;7400599;19;20513;-85
2023/07/12 02:40:24;;;;;;;0.73;0.73;;;;;;;;;;7394167;19;20144;-85
2023/07/12 02:42:51;;;;;;;1.23;0.75;;;;;;;;;;7392936;19;20125;-86
2023/07/12 02:45:18;;;;;;;0.60;0.60;;;;;;;;;;7391651;19;20522;-85
2023/07/12 02:47:45;;;;;;;1.63;1.17;;;;;;;;;;7388679;19;20160;-85
2023/07/12 02:50:12;;;;;;;1.00;0.90;;;;;;;;;;7392531;19;20137;-85
2023/07/12 02:52:39;;;;;;;0.57;0.57;;;;;;;;;;7393417;19;20129;-84
2023/07/12 02:55:06;;;;;;;0.55;0.55;;;;;;;;;;7385741;19;20141;-85
2023/07/12 02:57:32;;;;;;;0.70;0.70;;;;;;;;;;7391315;19;20145;-86
2023/07/12 02:59:59;;;;;;;0.63;0.63;;;;;;;;;;7394977;19;20669;-86
2023/07/12 03:02:30;;;;;;;0.70;0.70;;;;;;;;;;7390202;19;20224;-86
2023/07/12 03:04:57;;;;;;;1.73;0.57;;;;;;;;;;7392809;19;20606;-86
2023/07/12 03:07:23;;;;;;;1.58;1.40;;;;;;;;;;7390774;19;20149;-85
2023/07/12 03:09:55;;;;;;;0.70;0.70;;;;;;;;;;7392429;19;20148;-86
2023/07/12 03:12:22;;;;;;;0.93;0.93;;;;;;;;;;7394238;19;20141;-86
2023/07/12 03:14:48;;;;;;;0.65;0.65;;;;;;;;;;7391097;19;20133;-86
2023/07/12 03:17:15;;;;;;;0.47;0.47;;;;;;;;;;7393805;19;20164;-86
2023/07/12 03:19:42;;;;;;;0.55;0.55;;;;;;;;;;7392188;19;20502;-85
2023/07/12 03:22:09;;;;;;;0.47;0.47;;;;;;;;;;7394732;19;20208;-85
2023/07/12 03:24:35;;;;;;;0.40;0.40;;;;;;;;;;7397447;19;20200;-86
2023/07/12 03:27:02;;;;;;;0.60;0.60;;;;;;;;;;7387347;19;20161;-86
2023/07/12 03:29:29;;;;;;;0.40;0.40;;;;;;;;;;7392402;19;20498;-84
2023/07/12 03:31:55;;;;;;;0.98;0.98;;;;;;;;;;7393742;19;20151;-85
2023/07/12 03:34:22;;;;;;;1.35;1.13;;;;;;;;;;7391202;19;20143;-85
2023/07/12 03:36:48;;;;;;;0.85;0.85;;;;;;;;;;7389451;19;20156;-84
2023/07/12 03:39:15;;;;;;;0.90;0.88;;;;;;;;;;7389812;19;21031;-85
2023/07/12 03:41:42;;;;;;;0.68;0.63;;;;;;;;;;7390151;19;20141;-84
2023/07/12 03:44:08;;;;;;;0.65;0.65;;;;;;;;;;7388875;19;20129;-85
2023/07/12 03:46:35;;;;;;;2.00;0.95;;;;;;;;;;7386976;19;20521;-85
2023/07/12 03:49:02;;;;;;;0.40;0.40;;;;;;;;;;7384965;19;20147;-85
2023/07/12 03:51:28;;;;;;;0.95;0.65;;;;;;;;;;7382950;19;20136;-85
2023/07/12 03:53:55;;;;;;;0.77;0.77;;;;;;;;;;7385048;19;20132;-85
2023/07/12 03:56:22;;;;;;;0.77;0.55;;;;;;;;;;7382253;19;20149;-85
2023/07/12 03:58:49;;;;;;;0.57;0.57;;;;;;;;;;7384031;19;20137;-85
2023/07/12 04:01:17;;;;;;;0.70;0.70;;;;;;;;;;7385418;19;20147;-85
2023/07/12 04:03:44;;;;;;;0.90;0.90;;;;;;;;;;7381949;19;20168;-86
2023/07/12 04:06:12;;;;;;;0.60;0.60;;;;;;;;;;7384673;19;20594;-83
2023/07/12 04:08:40;;;;;;;1.20;1.20;;;;;;;;;;7394531;19;20707;-84
2023/07/12 04:11:06;;;;;;;0.60;0.60;;;;;;;;;;7393537;19;20576;-85
2023/07/12 04:13:33;;;;;;;0.70;0.70;;;;;;;;;;7396950;19;20137;-86
2023/07/12 04:16:01;;;;;;;2.47;1.30;;;;;;;;;;7391875;19;20624;-86
2023/07/12 04:18:28;;;;;;;0.43;0.43;;;;;;;;;;7394077;19;20596;-88
2023/07/12 04:21:03;;;;;;;0.75;0.75;;;;;;;;;;7394788;19;20161;-86
2023/07/12 04:27:37;;;;;;;0.80;0.80;;;;;;;;;;7398254;19;20155;-88
2023/07/12 04:30:24;;;;;;;0.68;0.68;;;;;;;;;;7393067;19;20129;-87
2023/07/12 04:33:05;;;;;;;0.60;0.60;;;;;;;;;;7392442;19;20649;-87
2023/07/12 04:36:12;;;;;;;0.63;0.63;;;;;;;;;;7386479;19;20141;-88
2023/07/12 04:39:32;;;;;;;0.40;0.40;;;;;;;;;;7395889;19;20165;-90
2023/07/12 04:41:59;;;;;;;1.05;0.60;;;;;;;;;;7392306;19;20166;-88
2023/07/12 04:44:26;;;;;;;0.65;0.65;;;;;;;;;;7395839;19;20176;-89
2023/07/12 04:47:00;;;;;;;0.30;0.30;;;;;;;;;;7393222;19;20252;-89
2023/07/12 04:49:29;;;;;;;1.30;0.95;;;;;;;;;;7398144;19;20153;-89
2023/07/12 04:51:59;;;;;;;4.78;0.60;;;;;;;;;;7397284;19;20141;-90
2023/07/12 04:54:26;;;;;;;0.82;0.82;;;;;;;;;;7395417;19;20133;-88
2023/07/12 04:56:53;;;;;;;1.05;0.85;;;;;;;;;;7393634;19;20165;-89
2023/07/12 05:02:23;;;;;;;0.98;0.95;;;;;;;;;;7391869;19;20156;-89
2023/07/12 05:04:50;;;;;;;0.82;0.82;;;;;;;;;;7395466;19;20140;-88
2023/07/12 05:07:17;;;;;;;0.47;0.47;;;;;;;;;;7395441;19;20157;-92
2023/07/12 05:09:45;;;;;;;0.77;0.65;;;;;;;;;;7400127;19;20496;-91
2023/07/12 05:12:18;;;;;;;0.38;0.38;;;;;;;;;;7398364;19;20692;-91
2023/07/12 05:14:45;;;;;;;1.48;0.85;;;;;;;;;;7399348;19;20151;-88
2023/07/12 05:17:11;;;;;;;0.40;0.40;;;;;;;;;;7395131;19;20173;-90
2023/07/12 05:19:38;;;;;;;0.50;0.50;;;;;;;;;;7399282;19;20133;-90
2023/07/12 05:22:10;;;;;;;1.00;0.80;;;;;;;;;;7399585;19;20153;-92
2023/07/12 05:24:36;;;;;;;0.40;0.40;;;;;;;;;;7395908;19;20144;-90
2023/07/12 05:27:04;;;;;;;0.82;0.70;;;;;;;;;;7401261;19;20167;-89
2023/07/12 05:29:33;;;;;;;0.68;0.68;;;;;;;;;;7399222;19;20149;-89
2023/07/12 05:32:00;;;;;;;1.40;1.30;;;;;;;;;;7395828;19;20201;-89
2023/07/12 05:34:27;;;;;;;0.60;0.60;;;;;;;;;;7398739;19;20140;-89
2023/07/12 05:36:54;;;;;;;0.82;0.82;;;;;;;;;;7395411;19;20152;-88
2023/07/12 05:39:20;;;;;;;0.93;0.80;;;;;;;;;;7387087;19;20720;-88
2023/07/12 05:41:47;;;;;;;4.15;1.23;;;;;;;;;;7391245;19;20144;-87
2023/07/12 05:44:14;;;;;;;1.55;1.45;;;;;;;;;;7398663;19;20158;-88
2023/07/12 05:46:41;;;;;;;0.80;0.80;;;;;;;;;;7398189;19;20148;-87
2023/07/12 05:49:08;;;;;;;1.30;1.23;;;;;;;;;;7395893;19;20150;-88
2023/07/12 05:51:34;;;;;;;0.50;0.50;;;;;;;;;;7399200;19;20129;-87
2023/07/12 05:54:01;;;;;;;0.80;0.80;;;;;;;;;;7395951;19;20204;-87
2023/07/12 05:56:28;;;;;;;0.60;0.60;;;;;;;;;;7394424;19;20141;-87
2023/07/12 05:58:54;;;;;;;0.73;0.73;;;;;;;;;;7394760;19;20133;-88
2023/07/12 06:01:21;;;;;;;0.93;0.93;;;;;;;;;;7394725;19;20605;-87
2023/07/12 06:03:48;;;;;;;0.98;0.95;;;;;;;;;;7386417;19;20125;-88
2023/07/12 06:06:15;;;;;;;0.75;0.75;;;;;;;;;;7393787;19;20140;-87
2023/07/12 06:08:41;;;;;;;1.33;1.05;;;;;;;;;;7387280;19;20125;-87
2023/07/12 06:11:08;;;;;;;1.27;1.27;;;;;;;;;;7389370;19;20130;-88
2023/07/12 06:13:37;;;;;;;0.88;0.88;;;;;;;;;;7389700;19;20539;-88
2023/07/12 06:16:04;;;;;;;0.77;0.77;;;;;;;;;;7394095;19;20618;-87
2023/07/12 06:18:31;;;;;;;0.55;0.55;;;;;;;;;;7398835;19;20137;-87
2023/07/12 06:20:59;;;;;;;1.15;0.80;;;;;;;;;;7401807;19;20143;-88
2023/07/12 06:23:27;;;;;;;0.80;0.80;;;;;;;;;;7397717;19;20169;-88
2023/07/12 06:25:57;;;;;;;1.00;0.82;;;;;;;;;;7399078;19;20141;-89
2023/07/12 06:28:25;;;;;;;1.00;0.93;;;;;;;;;;7402637;19;20196;-88
2023/07/12 06:30:52;;;;;;;1.35;1.27;;;;;;;;;;7399377;19;20149;-88
2023/07/12 06:33:19;;;;;;;1.27;1.17;;;;;;;;;;7399933;19;20129;-88
2023/07/12 06:35:45;;;;;;;5.68;2.20;;;;;;;;;;7395495;19;20125;-88
2023/07/12 06:38:12;;;;;;;1.40;0.90;;;;;;;;;;7397341;19;20842;-87
2023/07/12 06:40:39;;;;;;;0.93;0.93;;;;;;;;;;7398116;19;20129;-87
2023/07/12 06:43:05;;;;;;;0.60;0.60;;;;;;;;;;7400721;19;20128;-87
2023/07/12 06:45:32;;;;;;;1.20;1.10;;;;;;;;;;7394182;19;20612;-87
2023/07/12 06:47:59;;;;;;;1.70;1.60;;;;;;;;;;7397130;19;20165;-87
2023/07/12 06:50:25;;;;;;;0.60;0.60;;;;;;;;;;7397150;19;20518;-87
2023/07/12 06:52:52;;;;;;;0.55;0.55;;;;;;;;;;7400301;19;20137;-87
2023/07/12 06:55:18;;;;;;;1.15;0.90;;;;;;;;;;7396494;19;20143;-87
2023/07/12 06:57:45;;;;;;;1.42;1.27;;;;;;;;;;7402283;19;20152;-87
2023/07/12 07:00:13;;;;;;;0.80;0.80;;;;;;;;;;7399336;19;20177;-87
2023/07/12 07:02:39;;;;;;;1.38;1.20;;;;;;;;;;7401023;19;20135;-87
2023/07/12 07:05:06;;;;;;;1.00;0.90;;;;;;;;;;7402392;19;20141;-87
2023/07/12 07:07:33;;;;;;;0.95;0.93;;;;;;;;;;7399896;19;20185;-87
2023/07/12 07:09:59;;;;;;;0.47;0.47;;;;;;;;;;7402496;19;20140;-86
2023/07/12 07:12:26;;;;;;;1.25;1.00;;;;;;;;;;7398703;19;20133;-83
2023/07/12 07:14:52;;;;;;;1.48;1.38;;;;;;;;;;7396050;19;20640;-84
2023/07/12 07:17:20;;;;;;;1.15;1.05;;;;;;;;;;7390019;19;20508;-86
2023/07/12 07:19:47;;;;;;;0.77;0.77;;;;;;;;;;7389441;19;20121;-84
2023/07/12 07:22:13;;;;;;;2.08;1.20;;;;;;;;;;7387898;19;20121;-85
2023/07/12 07:24:40;;;;;;;0.80;0.80;;;;;;;;;;7384455;19;20133;-83
2023/07/12 07:27:07;;;;;;;1.10;1.10;;;;;;;;;;7384213;19;20177;-85
2023/07/12 07:29:35;;;;;;;0.60;0.60;;;;;;;;;;7386396;19;20463;-85
2023/07/12 07:32:01;;;;;;;1.27;0.88;;;;;;;;;;7389420;19;20135;-84
2023/07/12 07:34:30;;;;;;;0.85;0.80;;;;;;;;;;7388949;19;20154;-84
2023/07/12 07:36:57;;;;;;;0.45;0.45;;;;;;;;;;7386625;19;20648;-83
2023/07/12 07:39:23;;;;;;;1.98;0.85;;;;;;;;;;7389299;19;20129;-83
2023/07/12 07:41:50;;;;;;;1.58;1.15;;;;;;;;;;7389589;19;20157;-84
2023/07/12 07:44:16;;;;;;;0.90;0.90;;;;;;;;;;7388987;19;20624;-85
2023/07/12 07:46:43;;;;;;;0.70;0.70;;;;;;;;;;7384552;19;20176;-85
2023/07/12 07:49:10;;;;;;;0.77;0.77;;;;;;;;;;7387951;19;20137;-84
2023/07/12 07:51:36;;;;;;;0.93;0.93;;;;;;;;;;7390820;19;20685;-85
2023/07/12 07:54:03;;;;;;;0.90;0.90;;;;;;;;;;7387660;19;20140;-85
2023/07/12 07:56:30;;;;;;;1.10;1.00;;;;;;;;;;7385781;19;20168;-84
2023/07/12 07:58:56;;;;;;;0.77;0.77;;;;;;;;;;7385985;19;20136;-83
2023/07/12 08:01:23;;;;;;;0.50;0.50;;;;;;;;;;7382440;19;20136;-85
2023/07/12 08:03:50;;;;;;;1.25;1.15;;;;;;;;;;7384140;19;20132;-86
2023/07/12 08:06:17;;;;;;;0.55;0.55;;;;;;;;;;7385632;19;20147;-86
2023/07/12 08:08:43;;;;;;;0.68;0.68;;;;;;;;;;7385716;19;20604;-84
2023/07/12 08:11:10;;;;;;;1.20;1.10;;;;;;;;;;7383035;19;20605;-84
2023/07/12 08:13:37;;;;;;;0.68;0.68;;;;;;;;;;7388942;19;20133;-85
2023/07/12 22:41:53;;;;;;;1.02;0.40;;;;;;;;;;7380133;19;20188;-88
2023/07/12 22:44:21;;;;;;;0.30;0.30;;;;;;;;;;7394922;19;20148;-88
2023/07/12 22:46:49;;;;;;;0.60;0.60;;;;;;;;;;7392923;19;20227;-89
2023/07/12 22:49:26;;;;;;;0.60;0.60;;;;;;;;;;7394516;19;20165;-89
2023/07/12 22:52:01;;;;;;;0.30;0.30;;;;;;;;;;7393694;19;20184;-89
2023/07/12 22:54:28;;;;;;;0.32;0.32;;;;;;;;;;7394164;19;20132;-88
2023/07/12 22:56:54;;;;;;;0.73;0.73;;;;;;;;;;7391698;19;20165;-88
2023/07/12 22:59:21;;;;;;;0.50;0.50;;;;;;;;;;7392060;19;20152;-88
2023/07/12 23:01:48;;;;;;;0.85;0.85;;;;;;;;;;7394955;19;20197;-88
2023/07/12 23:04:14;;;;;;;0.70;0.70;;;;;;;;;;7397303;19;20164;-88
2023/07/12 23:06:41;;;;;;;0.40;0.40;;;;;;;;;;7395493;19;20153;-89
2023/07/12 23:09:10;;;;;;;0.55;0.55;;;;;;;;;;7395190;19;20149;-88
2023/07/12 23:11:36;;;;;;;0.57;0.57;;;;;;;;;;7395876;19;20160;-88
2023/07/12 23:14:03;;;;;;;0.63;0.63;;;;;;;;;;7393240;19;20128;-88
2023/07/12 23:16:30;;;;;;;0.47;0.47;;;;;;;;;;7394622;19;20156;-88
2023/07/12 23:18:57;;;;;;;0.50;0.50;;;;;;;;;;7396522;19;20121;-89
2023/07/12 23:21:23;;;;;;;0.50;0.50;;;;;;;;;;7393642;19;20140;-91
2023/07/12 23:23:51;;;;;;;0.70;0.60;;;;;;;;;;7394465;19;20212;-89
2023/07/12 23:26:18;;;;;;;1.60;0.70;;;;;;;;;;7397379;19;20129;-89
2023/07/12 23:28:46;;;;;;;1.00;0.70;;;;;;;;;;7394379;19;20156;-89
2023/07/12 23:31:13;;;;;;;0.60;0.60;;;;;;;;;;7396932;19;20144;-89
2023/07/12 23:33:40;;;;;;;0.75;0.65;;;;;;;;;;7398067;19;20148;-89
2023/07/12 23:36:11;;;;;;;0.70;0.70;;;;;;;;;;7398569;19;20125;-89
2023/07/12 23:38:38;;;;;;;0.70;0.70;;;;;;;;;;7397777;19;20220;-89
2023/07/12 23:41:05;;;;;;;0.60;0.60;;;;;;;;;;7395527;19;20147;-89
2023/07/12 23:43:34;;;;;;;0.98;0.98;;;;;;;;;;7393844;19;20665;-88
2023/07/12 23:46:02;;;;;;;0.95;0.73;;;;;;;;;;7395127;19;20157;-89
2023/07/12 23:48:31;;;;;;;1.10;0.95;;;;;;;;;;7395578;19;20164;-89
2023/07/12 23:50:59;;;;;;;0.85;0.57;;;;;;;;;;7397947;19;20204;-89
2023/07/12 23:53:26;;;;;;;0.60;0.60;;;;;;;;;;7397337;19;20137;-89
2023/07/12 23:55:52;;;;;;;0.65;0.65;;;;;;;;;;7396450;19;20137;-89
2023/07/12 23:58:20;;;;;;;0.70;0.70;;;;;;;;;;7396613;19;20174;-89
